Time;durP1;ratioP1;P1;durP2;ratioP2;P2;SDS_P1;SDS_P2;PMS_P1;PMS_P2;Temp;Humidity;BMP_temperature;BMP_pressure;BME280_temperature;BME280_humidity;BME280_pressure;Samples;Min_cycle;Max_cycle;Signal;HPM_P1;HPM_P2
2023/08/10 00:01:56;;;;;;;7.80;4.43;;;15.80;99.90;;;;;;5054155;28;20025;-57
2023/08/10 00:04:22;;;;;;;7.97;5.10;;;15.70;99.90;;;;;;5055684;28;20021;-57
2023/08/10 00:06:48;;;;;;;11.32;5.00;;;15.80;99.90;;;;;;5055654;28;20525;-57
2023/08/10 00:09:14;;;;;;;8.27;4.90;;;15.70;99.90;;;;;;5055514;28;20358;-57
2023/08/10 00:11:40;;;;;;;6.75;4.53;;;15.70;99.90;;;;;;5055508;28;20375;-57
2023/08/10 00:14:06;;;;;;;8.07;4.00;;;15.80;99.90;;;;;;5055428;28;20036;-57
2023/08/10 00:16:33;;;;;;;7.18;4.60;;;15.80;99.90;;;;;;5055251;28;20386;-57
2023/08/10 00:19:02;;;;;;;11.82;5.00;;;15.80;99.90;;;;;;5055711;28;20025;-57
2023/08/10 00:21:28;;;;;;;9.20;4.40;;;15.80;99.90;;;;;;5053976;28;20047;-57
2023/08/10 00:23:56;;;;;;;8.10;3.83;;;15.70;99.90;;;;;;5055087;28;20025;-57
2023/08/10 00:26:23;;;;;;;7.68;4.25;;;15.80;99.90;;;;;;5054575;28;20025;-57
2023/08/10 00:28:50;;;;;;;6.65;3.97;;;15.80;99.90;;;;;;5055194;28;20032;-57
2023/08/10 00:31:16;;;;;;;6.25;4.03;;;15.70;99.90;;;;;;5055019;28;20029;-57
2023/08/10 00:33:42;;;;;;;7.38;4.78;;;15.80;99.90;;;;;;5055283;28;20029;-57
2023/08/10 00:36:08;;;;;;;7.35;4.47;;;15.80;99.90;;;;;;5055018;28;20127;-57
2023/08/10 00:38:35;;;;;;;6.57;3.83;;;15.80;99.90;;;;;;5053705;28;20067;-57
2023/08/10 00:41:02;;;;;;;7.80;4.82;;;15.80;99.90;;;;;;5053815;28;20447;-57
2023/08/10 00:43:28;;;;;;;9.45;4.35;;;15.80;99.90;;;;;;5055005;28;20056;-57
2023/08/10 00:45:54;;;;;;;5.50;3.40;;;15.90;99.90;;;;;;5053473;28;20037;-57
2023/08/10 00:48:21;;;;;;;10.68;4.15;;;15.90;99.90;;;;;;5055044;28;20025;-57
2023/08/10 00:50:48;;;;;;;7.60;4.32;;;15.90;99.90;;;;;;5053485;28;20048;-57
2023/08/10 00:53:17;;;;;;;7.07;3.88;;;15.90;99.90;;;;;;5053444;28;20032;-57
2023/08/10 00:55:43;;;;;;;5.63;3.78;;;15.90;99.90;;;;;;5054946;28;20037;-57
2023/08/10 00:58:11;;;;;;;8.93;4.60;;;15.80;99.90;;;;;;5054649;28;20033;-57
2023/08/10 01:00:40;;;;;;;6.90;3.90;;;15.80;99.90;;;;;;5054532;28;20033;-57
2023/08/10 01:03:06;;;;;;;7.88;4.03;;;15.70;99.90;;;;;;5053370;28;20020;-57
2023/08/10 01:05:38;;;;;;;8.38;4.53;;;15.60;99.90;;;;;;5053381;28;20037;-57
2023/08/10 01:08:14;;;;;;;7.93;4.53;;;15.60;99.90;;;;;;5054576;28;20029;-57
2023/08/10 01:10:53;;;;;;;12.98;4.43;;;15.60;99.90;;;;;;5053417;28;20439;-57
2023/08/10 01:13:34;;;;;;;5.50;4.07;;;15.60;99.90;;;;;;5054262;28;20025;-57
2023/08/10 01:16:08;;;;;;;9.00;3.90;;;15.60;99.90;;;;;;5054801;28;20025;-57
2023/08/10 01:18:35;;;;;;;6.88;3.85;;;15.60;99.90;;;;;;5054463;28;20037;-57
2023/08/10 01:21:07;;;;;;;8.20;4.30;;;15.70;99.90;;;;;;5054241;28;20043;-57
2023/08/10 01:23:41;;;;;;;8.15;4.60;;;15.80;99.90;;;;;;5054479;28;20032;-57
2023/08/10 01:26:10;;;;;;;9.35;4.30;;;15.80;99.90;;;;;;5052903;28;20025;-57
2023/08/10 01:28:37;;;;;;;10.70;4.38;;;15.70;99.90;;;;;;5054262;28;20496;-57
2023/08/10 01:31:02;;;;;;;8.05;4.50;;;15.70;99.90;;;;;;5054526;28;20040;-57
2023/08/10 01:33:30;;;;;;;6.82;4.40;;;15.60;99.90;;;;;;5054334;28;20363;-57
2023/08/10 01:35:56;;;;;;;7.35;4.20;;;15.60;99.90;;;;;;5052859;28;20029;-57
2023/08/10 01:38:24;;;;;;;6.72;4.38;;;15.50;99.90;;;;;;5057146;28;20482;-57
2023/08/10 01:40:51;;;;;;;6.93;4.72;;;15.50;99.90;;;;;;5058261;28;20029;-57
2023/08/10 01:43:17;;;;;;;12.10;4.25;;;15.60;99.90;;;;;;5058197;28;20025;-57
2023/08/10 01:45:49;;;;;;;7.07;4.10;;;15.70;99.90;;;;;;5058356;28;20048;-57
2023/08/10 01:48:26;;;;;;;5.93;4.22;;;15.60;99.90;;;;;;5058259;28;20021;-57
2023/08/10 01:50:53;;;;;;;4.97;3.83;;;15.50;99.90;;;;;;5056810;28;20401;-57
2023/08/10 01:53:27;;;;;;;5.38;4.00;;;15.50;99.90;;;;;;5058216;28;20469;-57
2023/08/10 01:55:53;;;;;;;7.30;4.45;;;15.40;99.90;;;;;;5056616;28;20033;-57
2023/08/10 01:58:19;;;;;;;9.55;4.38;;;15.40;99.90;;;;;;5056851;28;20036;-57
2023/08/10 02:00:45;;;;;;;7.32;4.95;;;15.60;99.90;;;;;;5057774;28;20033;-57
2023/08/10 02:03:11;;;;;;;8.80;4.13;;;15.60;99.90;;;;;;5057836;28;20040;-57
2023/08/10 02:05:37;;;;;;;7.75;4.75;;;15.50;99.90;;;;;;5056579;28;20041;-57
2023/08/10 02:08:04;;;;;;;5.57;4.35;;;15.50;99.90;;;;;;5057878;28;20025;-57
2023/08/10 02:10:30;;;;;;;9.85;5.10;;;15.50;99.90;;;;;;5056460;28;20120;-57
2023/08/10 02:12:57;;;;;;;17.20;5.40;;;15.60;99.90;;;;;;5056370;28;20488;-57
2023/08/10 02:15:23;;;;;;;8.63;4.80;;;15.60;99.90;;;;;;5056369;28;20052;-57
2023/08/10 02:17:49;;;;;;;7.97;4.53;;;15.60;99.90;;;;;;5057572;28;20029;-57
2023/08/10 02:20:16;;;;;;;8.68;4.63;;;15.60;99.90;;;;;;5057456;28;20120;-57
2023/08/10 02:22:46;;;;;;;5.03;3.88;;;15.50;99.90;;;;;;5057697;28;20059;-57
2023/08/10 02:25:12;;;;;;;10.10;4.43;;;15.40;99.90;;;;;;5056248;28;20108;-57
2023/08/10 02:27:42;;;;;;;8.90;4.85;;;15.50;99.90;;;;;;5056169;28;20044;-57
2023/08/10 02:30:10;;;;;;;8.20;4.70;;;15.40;99.90;;;;;;5057321;28;20025;-57
2023/08/10 02:32:37;;;;;;;7.93;4.70;;;15.30;99.90;;;;;;5057390;28;20025;-57
2023/08/10 02:35:04;;;;;;;10.95;4.68;;;15.20;99.90;;;;;;5057493;28;20129;-57
2023/08/10 02:37:30;;;;;;;7.60;5.15;;;15.10;99.90;;;;;;5057224;28;20028;-57
2023/08/10 02:39:56;;;;;;;9.63;5.10;;;15.10;99.90;;;;;;5055923;28;20033;-57
2023/08/10 02:42:22;;;;;;;7.90;5.10;;;15.00;99.90;;;;;;5057204;28;20032;-57
2023/08/10 02:44:51;;;;;;;5.90;4.20;;;15.00;99.90;;;;;;5057078;28;20025;-57
2023/08/10 02:47:17;;;;;;;12.18;5.35;;;14.90;99.90;;;;;;5057131;28;20096;-57
2023/08/10 02:49:43;;;;;;;7.68;5.15;;;14.90;99.90;;;;;;5056426;28;20025;-57
2023/08/10 02:52:09;;;;;;;7.20;4.60;;;14.80;99.90;;;;;;5055591;28;20064;-57
2023/08/10 02:54:36;;;;;;;6.18;4.55;;;14.80;99.90;;;;;;5057055;28;20033;-57
2023/08/10 02:57:02;;;;;;;8.38;5.45;;;14.70;99.90;;;;;;5057008;28;20522;-57
2023/08/10 02:59:28;;;;;;;8.00;4.93;;;14.70;99.90;;;;;;5055633;28;20029;-57
2023/08/10 03:01:54;;;;;;;8.63;5.55;;;14.60;99.90;;;;;;5055503;28;20032;-57
2023/08/10 03:04:20;;;;;;;8.98;5.10;;;14.60;99.90;;;;;;5056885;28;20029;-57
2023/08/10 03:06:46;;;;;;;9.18;5.15;;;14.60;99.90;;;;;;5056695;28;20096;-57
2023/08/10 03:09:13;;;;;;;7.35;4.43;;;14.60;99.90;;;;;;5055694;28;20401;-57
2023/08/10 03:11:39;;;;;;;7.93;4.88;;;14.60;99.90;;;;;;5055267;28;20029;-57
2023/08/10 03:14:05;;;;;;;12.93;5.53;;;14.40;99.90;;;;;;5055168;28;20025;-57
2023/08/10 03:16:31;;;;;;;7.78;4.82;;;14.30;99.90;;;;;;5056674;28;20103;-57
2023/08/10 03:18:58;;;;;;;10.38;4.90;;;14.30;99.90;;;;;;5055341;28;20148;-57
2023/08/10 03:21:24;;;;;;;6.30;4.57;;;14.30;99.90;;;;;;5056142;28;20084;-57
2023/08/10 03:23:50;;;;;;;8.90;5.18;;;14.20;99.90;;;;;;5056422;28;20064;-57
2023/08/10 03:26:16;;;;;;;10.20;5.57;;;14.20;99.90;;;;;;5055157;28;20060;-57
2023/08/10 03:28:42;;;;;;;9.70;6.03;;;14.20;99.90;;;;;;5055021;28;20051;-57
2023/08/10 03:31:12;;;;;;;8.60;5.03;;;14.10;99.90;;;;;;5055112;28;20033;-57
2023/08/10 03:33:39;;;;;;;13.68;6.18;;;14.20;99.90;;;;;;5055166;28;20048;-57
2023/08/10 03:36:05;;;;;;;16.65;6.95;;;14.20;99.90;;;;;;5056052;28;20489;-57
2023/08/10 03:38:31;;;;;;;9.52;6.03;;;14.20;99.90;;;;;;5056298;28;20107;-57
2023/08/10 03:40:57;;;;;;;11.00;6.05;;;14.20;99.90;;;;;;5056082;28;20029;-57
2023/08/10 03:43:23;;;;;;;12.15;5.45;;;14.10;99.90;;;;;;5054708;28;20546;-57
2023/08/10 03:45:49;;;;;;;13.30;5.80;;;14.10;99.90;;;;;;5056154;28;20025;-57
2023/08/10 03:48:16;;;;;;;10.23;5.93;;;14.10;99.90;;;;;;5054641;28;20051;-57
2023/08/10 03:50:42;;;;;;;9.60;5.40;;;13.90;99.90;;;;;;5054671;28;20029;-57
2023/08/10 03:53:08;;;;;;;7.50;4.85;;;13.90;99.90;;;;;;5056077;28;20037;-57
2023/08/10 03:55:34;;;;;;;10.63;5.53;;;13.90;99.90;;;;;;5054440;28;20155;-57
2023/08/10 03:58:01;;;;;;;11.82;5.25;;;13.90;99.90;;;;;;5054456;28;20407;-57
2023/08/10 04:00:27;;;;;;;9.38;5.60;;;13.80;99.90;;;;;;5053257;28;20032;-57
2023/08/10 04:02:53;;;;;;;9.23;5.32;;;13.80;99.90;;;;;;5055494;28;20036;-57
2023/08/10 04:05:20;;;;;;;8.73;5.28;;;13.80;99.90;;;;;;5054459;28;20064;-57
2023/08/10 04:07:47;;;;;;;9.35;5.43;;;13.70;99.90;;;;;;5055630;28;20044;-57
2023/08/10 04:10:13;;;;;;;8.48;5.65;;;13.80;99.90;;;;;;5055714;28;20032;-57
2023/08/10 04:12:39;;;;;;;8.18;5.20;;;13.70;99.90;;;;;;5055257;28;20383;-57
2023/08/10 04:15:09;;;;;;;8.10;5.07;;;13.80;99.90;;;;;;5054316;28;20405;-57
2023/08/10 04:17:36;;;;;;;7.53;4.85;;;13.80;99.90;;;;;;5053962;28;20428;-57
2023/08/10 04:20:09;;;;;;;10.25;5.13;;;13.80;99.90;;;;;;5053890;28;20231;-57
2023/08/10 04:22:36;;;;;;;9.98;5.07;;;13.80;99.90;;;;;;5055685;28;20040;-57
2023/08/10 04:25:03;;;;;;;13.07;6.22;;;13.80;99.90;;;;;;5055092;28;20486;-57
2023/08/10 04:27:29;;;;;;;10.20;5.70;;;13.80;99.90;;;;;;5055455;28;20154;-58
2023/08/10 04:29:55;;;;;;;11.25;6.32;;;13.80;99.90;;;;;;5055101;28;20397;-57
2023/08/10 04:32:22;;;;;;;13.18;6.43;;;13.90;99.90;;;;;;5054955;28;20027;-57
2023/08/10 04:34:48;;;;;;;13.98;6.20;;;13.90;99.90;;;;;;5054984;28;20032;-57
2023/08/10 04:37:14;;;;;;;18.83;5.93;;;14.00;99.90;;;;;;5055037;28;20378;-57
2023/08/10 04:39:41;;;;;;;12.18;6.97;;;14.00;99.90;;;;;;5054816;28;20375;-57
2023/08/10 04:42:06;;;;;;;12.50;6.70;;;14.10;99.90;;;;;;5054876;28;20094;-57
2023/08/10 04:44:32;;;;;;;13.30;7.55;;;14.20;99.90;;;;;;5054793;28;20025;-57
2023/08/10 04:46:58;;;;;;;16.48;7.05;;;14.30;99.90;;;;;;5054790;28;20021;-57
2023/08/10 04:49:26;;;;;;;20.73;8.27;;;14.40;99.90;;;;;;5054734;28;20025;-57
2023/08/10 04:51:51;;;;;;;22.40;8.48;;;14.50;99.90;;;;;;5054755;28;20036;-57
2023/08/10 04:54:17;;;;;;;14.85;8.02;;;14.60;99.90;;;;;;5054609;28;20047;-57
2023/08/10 04:56:43;;;;;;;16.02;7.90;;;14.70;99.90;;;;;;5054960;28;20029;-57
2023/08/10 04:59:09;;;;;;;14.68;7.72;;;14.90;99.90;;;;;;5054645;28;20035;-57
2023/08/10 05:01:35;;;;;;;20.15;7.82;;;15.00;99.90;;;;;;5054395;28;20037;-57
2023/08/10 05:04:01;;;;;;;17.65;9.38;;;15.20;99.90;;;;;;5054489;28;20025;-57
2023/08/10 05:06:27;;;;;;;22.23;8.13;;;15.30;99.90;;;;;;5053354;28;20120;-57
2023/08/10 05:08:53;;;;;;;16.58;8.02;;;15.50;99.90;;;;;;5054283;28;20025;-57
2023/08/10 05:11:19;;;;;;;19.52;8.48;;;15.60;99.90;;;;;;5054132;28;20576;-57
2023/08/10 05:13:45;;;;;;;21.50;8.10;;;15.70;99.90;;;;;;5054479;28;20514;-57
2023/08/10 05:16:10;;;;;;;19.00;8.00;;;15.80;99.90;;;;;;5054447;28;20482;-57
2023/08/10 05:18:36;;;;;;;18.77;7.88;;;16.00;99.90;;;;;;5054428;28;20039;-57
2023/08/10 05:21:02;;;;;;;18.83;7.53;;;16.20;99.90;;;;;;5053999;28;20045;-57
2023/08/10 05:23:30;;;;;;;17.33;7.97;;;16.30;99.90;;;;;;5054380;28;20051;-57
2023/08/10 05:25:55;;;;;;;16.92;9.07;;;16.30;99.90;;;;;;5054705;28;20104;-57
2023/08/10 05:28:22;;;;;;;14.90;7.63;;;16.40;99.90;;;;;;5054969;28;20485;-57
2023/08/10 05:30:51;;;;;;;16.92;7.90;;;16.50;99.90;;;;;;5052885;28;20048;-57
2023/08/10 05:33:16;;;;;;;20.58;7.30;;;16.50;99.90;;;;;;5054985;28;20029;-57
2023/08/10 05:35:42;;;;;;;17.88;7.70;;;16.70;99.90;;;;;;5054928;28;20489;-57
2023/08/10 05:38:08;;;;;;;22.23;8.68;;;16.70;99.90;;;;;;5054515;28;20090;-57
2023/08/10 05:40:34;;;;;;;24.30;9.10;;;16.80;99.90;;;;;;5054206;28;20371;-57
2023/08/10 05:43:00;;;;;;;15.63;7.40;;;16.90;99.90;;;;;;5053956;28;20037;-57
2023/08/10 05:45:27;;;;;;;16.05;7.38;;;16.90;99.90;;;;;;5053907;28;20087;-57
2023/08/10 05:47:53;;;;;;;23.95;9.15;;;16.90;99.90;;;;;;5053944;28;20028;-57
2023/08/10 05:50:19;;;;;;;20.30;8.13;;;17.00;99.90;;;;;;5053892;28;20033;-57
2023/08/10 05:52:45;;;;;;;23.80;8.13;;;17.10;99.90;;;;;;5050951;28;20466;-57
2023/08/10 05:55:12;;;;;;;16.25;8.10;;;17.10;99.90;;;;;;5054109;28;20029;-57
2023/08/10 05:57:39;;;;;;;19.42;7.88;;;17.10;99.90;;;;;;5053702;28;20450;-57
2023/08/10 06:00:05;;;;;;;15.63;8.60;;;17.20;99.90;;;;;;5053597;28;20044;-57
2023/08/10 06:02:38;;;;;;;18.90;7.95;;;17.30;99.90;;;;;;5053808;28;20080;-57
2023/08/10 06:05:06;;;;;;;13.85;7.95;;;17.50;99.90;;;;;;5053375;28;20096;-57
2023/08/10 06:07:33;;;;;;;23.38;10.57;;;17.60;99.90;;;;;;5053525;28;20025;-57
2023/08/10 06:10:00;;;;;;;15.13;8.38;;;17.80;99.90;;;;;;5053854;28;20061;-57
2023/08/10 06:12:25;;;;;;;13.23;7.03;;;17.90;99.90;;;;;;5053465;28;20112;-57
2023/08/10 06:14:51;;;;;;;12.45;6.35;;;18.10;99.90;;;;;;5053332;28;20497;-57
2023/08/10 06:17:17;;;;;;;12.90;6.40;;;18.30;99.90;;;;;;5053822;28;20115;-57
2023/08/10 06:19:51;;;;;;;12.93;5.95;;;18.40;99.90;;;;;;5053559;28;20045;-57
2023/08/10 06:22:18;;;;;;;9.65;6.05;;;18.50;99.90;;;;;;5053579;28;20036;-57
2023/08/10 06:24:44;;;;;;;13.25;7.07;;;18.50;99.90;;;;;;5056147;28;21129;-58
2023/08/10 06:27:09;;;;;;;27.65;8.50;;;18.60;99.90;;;;;;5057211;28;20070;-57
2023/08/10 06:29:35;;;;;;;23.55;8.05;;;18.70;99.90;;;;;;5056930;28;20067;-58
2023/08/10 06:32:08;;;;;;;20.05;7.13;;;18.70;99.90;;;;;;5057226;28;20040;-57
2023/08/10 06:34:34;;;;;;;22.35;7.45;;;18.70;99.90;;;;;;5057051;28;20029;-57
2023/08/10 06:37:00;;;;;;;18.60;8.48;;;18.80;99.90;;;;;;5057105;28;20040;-57
2023/08/10 06:39:29;;;;;;;24.88;9.23;;;18.90;99.90;;;;;;5062178;28;20024;-57
2023/08/10 06:41:55;;;;;;;23.08;8.18;;;18.90;99.90;;;;;;5077548;28;20028;-57
2023/08/10 06:44:29;;;;;;;18.88;8.57;;;19.10;99.90;;;;;;5055951;28;20051;-57
2023/08/10 06:46:55;;;;;;;26.25;10.18;;;19.20;99.90;;;;;;5056346;28;20032;-57
2023/08/10 06:49:21;;;;;;;31.98;12.43;;;19.20;99.90;;;;;;5056211;28;20067;-57
2023/08/10 06:51:50;;;;;;;34.53;12.23;;;19.30;99.90;;;;;;5056584;28;20462;-57
2023/08/10 06:54:16;;;;;;;34.67;13.00;;;19.20;99.90;;;;;;5056743;28;20398;-57
2023/08/10 06:56:42;;;;;;;32.15;12.65;;;19.40;99.90;;;;;;5056651;28;20091;-57
2023/08/10 06:59:07;;;;;;;31.17;11.40;;;19.60;99.90;;;;;;5056654;28;20095;-57
2023/08/10 07:01:34;;;;;;;29.85;13.70;;;19.80;99.90;;;;;;5055107;28;20124;-57
2023/08/10 07:04:00;;;;;;;46.40;20.52;;;20.10;99.90;;;;;;5061137;28;20111;-57
2023/08/10 07:06:26;;;;;;;34.75;16.42;;;20.40;99.90;;;;;;5059469;28;20063;-57
2023/08/10 07:08:53;;;;;;;36.90;17.35;;;20.50;99.90;;;;;;5076054;28;20428;-57
2023/08/10 07:11:21;;;;;;;34.08;14.07;;;20.50;99.90;;;;;;5071644;28;20078;-57
2023/08/10 07:13:48;;;;;;;30.15;14.88;;;20.70;99.90;;;;;;5056312;28;20080;-57
2023/08/10 07:16:15;;;;;;;40.28;15.35;;;20.90;99.90;;;;;;5056570;28;20103;-57
2023/08/10 07:18:41;;;;;;;30.08;14.77;;;20.90;99.90;;;;;;5056443;28;20084;-57
2023/08/10 07:21:07;;;;;;;33.55;15.07;;;21.00;99.90;;;;;;5071137;28;20513;-57
2023/08/10 07:23:33;;;;;;;35.13;15.20;;;21.10;99.90;;;;;;5076257;28;20421;-57
2023/08/10 07:25:59;;;;;;;36.00;14.40;;;21.00;99.90;;;;;;5060242;28;20028;-57
2023/08/10 07:28:26;;;;;;;34.17;14.02;;;21.20;99.90;;;;;;5055986;28;20550;-57
2023/08/10 07:30:53;;;;;;;36.92;14.80;;;21.20;99.90;;;;;;5054615;28;20052;-57
2023/08/10 07:33:19;;;;;;;27.23;14.40;;;21.30;99.90;;;;;;5055678;28;20031;-58
2023/08/10 07:35:46;;;;;;;30.95;12.57;;;21.50;99.70;;;;;;5055712;28;20474;-57
2023/08/10 07:38:13;;;;;;;25.02;11.82;;;21.60;99.90;;;;;;5061320;28;20082;-57
2023/08/10 07:40:39;;;;;;;25.02;12.40;;;21.60;99.50;;;;;;5055979;28;20043;-58
2023/08/10 07:43:04;;;;;;;29.02;14.45;;;21.80;98.80;;;;;;5055685;28;20025;-57
2023/08/10 07:45:31;;;;;;;27.80;13.48;;;22.10;98.60;;;;;;5056629;28;20060;-58
2023/08/10 07:47:57;;;;;;;28.55;12.77;;;22.20;97.60;;;;;;5052730;28;20075;-57
2023/08/10 07:50:23;;;;;;;28.30;13.05;;;22.40;97.90;;;;;;5055638;28;20033;-57
2023/08/10 07:52:49;;;;;;;25.58;12.35;;;22.40;97.00;;;;;;5055637;28;20036;-57
2023/08/10 07:55:15;;;;;;;22.60;12.43;;;22.50;95.70;;;;;;5055447;28;20033;-58
2023/08/10 07:57:41;;;;;;;25.35;11.77;;;22.70;95.80;;;;;;5054188;28;20048;-57
2023/08/10 08:00:10;;;;;;;31.40;12.43;;;23.00;95.20;;;;;;5055300;28;20036;-58
2023/08/10 08:02:39;;;;;;;22.00;11.55;;;23.20;92.90;;;;;;5055381;28;20036;-57
2023/08/10 08:05:06;;;;;;;24.58;12.52;;;23.40;93.10;;;;;;5055833;28;20482;-57
2023/08/10 08:07:32;;;;;;;24.00;11.02;;;23.40;93.20;;;;;;5053961;28;20033;-58
2023/08/10 08:09:59;;;;;;;25.45;13.05;;;23.60;93.20;;;;;;5055065;28;20385;-58
2023/08/10 08:12:26;;;;;;;25.35;11.90;;;23.90;92.00;;;;;;5071036;28;20107;-57
2023/08/10 08:14:53;;;;;;;27.80;12.30;;;24.00;92.70;;;;;;5075182;28;20027;-58
2023/08/10 08:17:20;;;;;;;31.25;15.65;;;24.10;91.30;;;;;;5075030;28;20460;-58
2023/08/10 08:19:46;;;;;;;26.25;11.73;;;24.00;90.70;;;;;;5074979;28;20447;-58
2023/08/10 08:22:12;;;;;;;13.80;7.40;;;23.80;90.90;;;;;;5066489;28;20091;-57
2023/08/10 08:24:38;;;;;;;15.23;7.55;;;24.00;85.40;;;;;;5054680;28;20025;-58
2023/08/10 08:27:04;;;;;;;16.77;7.50;;;24.10;88.80;;;;;;5054680;28;20029;-58
2023/08/10 08:29:34;;;;;;;15.82;7.68;;;24.10;84.30;;;;;;5054450;28;20021;-58
2023/08/10 08:32:03;;;;;;;18.33;7.28;;;24.20;82.50;;;;;;5055341;28;20360;-58
2023/08/10 08:34:34;;;;;;;19.27;7.80;;;24.20;82.20;;;;;;5054908;28;20029;-58
2023/08/10 08:37:00;;;;;;;19.67;7.95;;;24.10;81.70;;;;;;5054804;28;20032;-58
2023/08/10 08:39:26;;;;;;;23.25;8.00;;;24.40;81.70;;;;;;5054684;28;20369;-58
2023/08/10 08:41:54;;;;;;;16.25;6.15;;;24.50;84.50;;;;;;5054469;28;20489;-58
2023/08/10 08:44:20;;;;;;;14.00;4.68;;;24.70;77.60;;;;;;5054810;28;20386;-57
2023/08/10 08:46:54;;;;;;;14.70;5.43;;;25.00;72.50;;;;;;5053713;28;20035;-58
2023/08/10 08:49:23;;;;;;;10.20;4.13;;;25.20;72.90;;;;;;5055386;28;20024;-58
2023/08/10 08:51:52;;;;;;;9.80;4.00;;;24.80;65.90;;;;;;5055506;28;20103;-58
2023/08/10 08:54:19;;;;;;;8.32;3.95;;;24.90;68.30;;;;;;5055248;28;20458;-58
2023/08/10 08:56:45;;;;;;;7.63;3.65;;;25.20;65.80;;;;;;5053253;28;20033;-58
2023/08/10 08:59:11;;;;;;;13.10;3.95;;;25.70;67.20;;;;;;5054475;28;20031;-58
2023/08/10 09:01:37;;;;;;;13.30;5.38;;;26.20;64.50;;;;;;5054033;28;20514;-57
2023/08/10 09:04:03;;;;;;;12.48;4.72;;;26.40;62.50;;;;;;5054185;28;20425;-58
2023/08/10 09:06:28;;;;;;;13.15;5.38;;;26.20;64.20;;;;;;5054382;28;20032;-58
2023/08/10 09:08:54;;;;;;;13.05;5.53;;;26.30;59.80;;;;;;5054192;28;20029;-57
2023/08/10 09:11:20;;;;;;;11.45;5.15;;;26.50;62.60;;;;;;5060960;28;20021;-57
2023/08/10 09:14:06;;;;;;;11.50;5.45;;;25.90;58.20;;;;;;5074316;28;20032;-58
2023/08/10 09:16:33;;;;;;;9.55;4.60;;;25.90;60.20;;;;;;5074185;28;20055;-57
2023/08/10 09:19:01;;;;;;;12.52;5.20;;;25.80;57.20;;;;;;5074089;28;20051;-58
2023/08/10 09:21:31;;;;;;;13.18;4.80;;;25.20;58.20;;;;;;5073991;28;20059;-58
2023/08/10 09:23:57;;;;;;;7.57;3.80;;;26.30;59.20;;;;;;5074181;28;20070;-58
2023/08/10 09:26:24;;;;;;;9.10;4.13;;;27.20;56.60;;;;;;5074288;28;20359;-58
2023/08/10 09:28:50;;;;;;;10.90;5.25;;;26.70;55.00;;;;;;5062045;28;20481;-57
2023/08/10 09:31:34;;;;;;;6.57;3.83;;;26.80;55.80;;;;;;5053915;28;20025;-58
2023/08/10 09:34:00;;;;;;;7.43;3.60;;;27.30;54.10;;;;;;5054345;28;20029;-58
2023/08/10 09:36:28;;;;;;;10.48;4.18;;;26.80;53.50;;;;;;5054126;28;20057;-58
2023/08/10 09:38:55;;;;;;;7.32;3.42;;;27.20;53.20;;;;;;5053907;28;20154;-57
2023/08/10 09:41:22;;;;;;;8.98;3.95;;;26.60;53.80;;;;;;5054013;28;20113;-57
2023/08/10 09:43:51;;;;;;;12.38;4.50;;;26.90;52.50;;;;;;5052548;28;20425;-58
2023/08/10 09:46:18;;;;;;;11.80;4.13;;;27.40;53.40;;;;;;5053920;28;20028;-57
2023/08/10 09:48:49;;;;;;;9.05;5.35;;;27.90;54.80;;;;;;5054109;28;20029;-58
2023/08/10 09:51:15;;;;;;;10.95;6.45;;;28.50;54.30;;;;;;5053797;28;20483;-58
2023/08/10 09:53:41;;;;;;;14.25;6.97;;;28.70;47.40;;;;;;5053894;28;20029;-58
2023/08/10 09:56:07;;;;;;;11.10;4.82;;;28.70;49.60;;;;;;5054072;28;20118;-57
2023/08/10 09:58:36;;;;;;;5.57;3.85;;;28.80;50.20;;;;;;5056220;28;20195;-58
2023/08/10 10:01:03;;;;;;;7.65;3.67;;;28.90;49.30;;;;;;5057968;28;20083;-58
2023/08/10 10:03:31;;;;;;;11.45;4.60;;;28.90;49.20;;;;;;5057932;28;20037;-58
2023/08/10 10:05:58;;;;;;;9.32;3.30;;;29.50;51.40;;;;;;5058072;28;20053;-58
2023/08/10 10:08:33;;;;;;;3.72;2.08;;;29.90;45.40;;;;;;5057588;28;20037;-58
2023/08/10 10:11:01;;;;;;;7.05;2.83;;;29.90;43.50;;;;;;5057596;28;20035;-57
2023/08/10 10:13:28;;;;;;;6.22;2.25;;;28.70;42.30;;;;;;5057401;28;20385;-57
2023/08/10 10:15:55;;;;;;;6.80;2.63;;;29.20;42.40;;;;;;5055410;28;20048;-57
2023/08/10 10:18:22;;;;;;;5.13;2.00;;;29.40;40.60;;;;;;5057582;28;20056;-58
2023/08/10 10:20:49;;;;;;;1.98;1.70;;;29.20;41.10;;;;;;5057111;28;20049;-58
2023/08/10 10:23:20;;;;;;;3.00;1.95;;;28.70;40.00;;;;;;5057488;28;20553;-58
2023/08/10 10:26:02;;;;;;;3.72;2.20;;;28.20;42.90;;;;;;5057428;28;20087;-58
2023/08/10 10:28:31;;;;;;;5.30;2.25;;;29.20;41.90;;;;;;5057496;28;20045;-58
2023/08/10 10:31:09;;;;;;;4.45;2.13;;;28.10;41.60;;;;;;5055812;28;20025;-57
2023/08/10 10:33:35;;;;;;;3.95;1.92;;;28.30;41.00;;;;;;5057417;28;20037;-57
2023/08/10 10:36:12;;;;;;;6.93;3.00;;;28.10;44.30;;;;;;5056985;28;20064;-57
2023/08/10 10:38:47;;;;;;;3.05;2.40;;;28.20;43.00;;;;;;5056958;28;20032;-57
2023/08/10 10:41:27;;;;;;;8.95;3.03;;;27.60;43.20;;;;;;5057057;28;20029;-57
2023/08/10 10:43:53;;;;;;;5.07;2.83;;;27.80;43.50;;;;;;5056874;28;20029;-57
2023/08/10 10:46:34;;;;;;;3.58;2.08;;;28.10;44.40;;;;;;5056856;28;20027;-57
2023/08/10 10:49:05;;;;;;;8.45;3.28;;;27.60;44.20;;;;;;5056878;28;20025;-57
2023/08/10 10:51:31;;;;;;;7.75;3.08;;;26.90;43.30;;;;;;5056922;28;20032;-57
2023/08/10 10:53:57;;;;;;;4.60;2.25;;;26.80;46.00;;;;;;5057005;28;20033;-57
2023/08/10 10:56:26;;;;;;;2.85;1.80;;;27.20;45.80;;;;;;5057230;28;20541;-57
2023/08/10 10:58:52;;;;;;;5.45;2.08;;;27.20;46.50;;;;;;5057548;28;20033;-57
2023/08/10 11:01:22;;;;;;;10.25;3.88;;;26.90;44.60;;;;;;5057345;28;20040;-57
2023/08/10 11:03:53;;;;;;;5.68;2.58;;;26.80;46.00;;;;;;5056764;28;20048;-57
2023/08/10 11:06:20;;;;;;;6.57;2.92;;;27.00;52.50;;;;;;5057261;28;20498;-57
2023/08/10 11:08:54;;;;;;;5.63;2.92;;;27.20;45.40;;;;;;5057120;28;20036;-57
2023/08/10 11:11:21;;;;;;;5.60;2.83;;;27.20;43.60;;;;;;5062598;28;20056;-57
2023/08/10 11:13:48;;;;;;;4.07;2.30;;;28.00;42.90;;;;;;5077345;28;20484;-57
2023/08/10 11:16:15;;;;;;;6.97;2.65;;;28.70;42.60;;;;;;5074074;28;20036;-57
2023/08/10 11:18:50;;;;;;;2.35;1.75;;;27.90;42.40;;;;;;5057184;28;20033;-57
2023/08/10 11:21:21;;;;;;;9.73;2.95;;;28.10;41.00;;;;;;5056631;28;20041;-57
2023/08/10 11:23:47;;;;;;;11.82;3.22;;;28.80;40.30;;;;;;5056869;28;20025;-58
2023/08/10 11:26:13;;;;;;;4.00;2.30;;;29.20;39.90;;;;;;5056522;28;20095;-58
2023/08/10 11:28:40;;;;;;;8.90;3.05;;;29.50;40.10;;;;;;5053878;28;20031;-58
2023/08/10 11:31:08;;;;;;;10.23;2.63;;;29.60;40.90;;;;;;5056309;28;20031;-58
2023/08/10 11:33:34;;;;;;;5.65;2.90;;;29.40;38.90;;;;;;5055870;28;20344;-58
2023/08/10 11:36:02;;;;;;;5.13;2.78;;;27.90;39.20;;;;;;5056029;28;20578;-58
2023/08/10 11:38:28;;;;;;;4.93;2.85;;;28.60;41.90;;;;;;5055648;28;20486;-58
2023/08/10 11:40:57;;;;;;;9.77;3.30;;;28.90;41.20;;;;;;5055823;28;20085;-58
2023/08/10 11:43:25;;;;;;;7.80;3.10;;;29.60;39.80;;;;;;5055740;28;20025;-58
2023/08/10 11:45:58;;;;;;;4.97;2.88;;;28.40;40.30;;;;;;5037602;28;20025;-58
2023/08/10 11:48:29;;;;;;;5.32;3.33;;;29.20;38.00;;;;;;5035079;28;20136;-58
2023/08/10 11:50:59;;;;;;;6.05;3.22;;;29.60;41.40;;;;;;5035675;28;20021;-58
2023/08/10 11:53:36;;;;;;;7.05;4.22;;;29.90;38.60;;;;;;5042607;28;20072;-58
2023/08/10 11:56:09;;;;;;;5.70;3.60;;;29.10;38.10;;;;;;5055634;28;20031;-58
2023/08/10 11:58:35;;;;;;;9.68;3.67;;;29.10;41.00;;;;;;5055618;28;20041;-58
2023/08/10 12:01:07;;;;;;;13.93;4.05;;;28.40;38.60;;;;;;5055355;28;20029;-58
2023/08/10 12:03:33;;;;;;;6.60;3.10;;;28.60;44.30;;;;;;5055278;28;20017;-59
2023/08/10 12:06:05;;;;;;;5.72;3.20;;;28.10;44.20;;;;;;5055672;28;20378;-59
2023/08/10 12:08:35;;;;;;;9.05;2.60;;;27.90;43.10;;;;;;5055299;28;20021;-59
2023/08/10 12:11:09;;;;;;;6.57;3.08;;;27.50;43.50;;;;;;5055132;28;20025;-59
2023/08/10 12:13:49;;;;;;;4.05;2.55;;;27.60;45.60;;;;;;5055807;28;20036;-59
2023/08/10 12:16:20;;;;;;;9.98;3.22;;;27.20;46.50;;;;;;5056093;28;20029;-59
2023/08/10 12:18:47;;;;;;;2.97;2.38;;;27.20;45.60;;;;;;5055929;28;20107;-59
2023/08/10 12:21:13;;;;;;;5.07;2.40;;;27.10;50.00;;;;;;5052702;28;20037;-59
2023/08/10 12:23:39;;;;;;;3.35;2.22;;;26.50;50.20;;;;;;5055315;28;20025;-59
2023/08/10 12:26:05;;;;;;;6.55;2.63;;;26.20;51.10;;;;;;5055637;28;20074;-59
2023/08/10 12:28:31;;;;;;;6.15;2.90;;;26.30;51.70;;;;;;5055909;28;20036;-59
2023/08/10 12:30:57;;;;;;;4.30;2.47;;;26.30;53.70;;;;;;5055122;28;20440;-59
2023/08/10 12:33:23;;;;;;;8.73;3.20;;;26.90;47.00;;;;;;5054311;28;20043;-59
2023/08/10 12:35:50;;;;;;;5.35;2.75;;;27.70;47.00;;;;;;5054953;28;20382;-59
2023/08/10 12:38:18;;;;;;;4.05;2.90;;;28.20;44.10;;;;;;5054771;28;20037;-59
2023/08/10 12:40:44;;;;;;;5.80;2.63;;;28.40;45.70;;;;;;5054328;28;20064;-59
2023/08/10 12:43:10;;;;;;;7.15;3.20;;;28.70;41.50;;;;;;5054565;28;20151;-59